Jose R. Sojo, Argentina
Current Conditions -  °F | °C
As of 2:00 PM on Thursday 18 Dec 2014 (Local Time) from SAEZ Reporting Station
Scattered Clouds Scattered Clouds  
Wind Chill: 88°   Ceiling: Unl
Heat Index: 88°   Visibility: 6mi
Dew Point: 59°   Wind: 10mph
Humidity: 38%   Direction: 290°WNW
Pressure: 29.83"   Gusts: NA
Location:  35.69°S, 59.59°W
Report Text: SAEZ 181700Z 29009KT 240V340 9999 SCT060TCU 31/15 Q1010
Loading
Personal Weather Stations






























Interactive Weather Map New forecast layout! Learn more

10-Day Weather Forecast

Advertisements
Track Severe Weather on mobile